sensor_id;sensor_type;location;lat;lon;timestamp;pressure;altitude;pressure_sealevel;temperature;humidity
216;BME280;64590;48.81286795;9.14184224;2023-04-28T00:00:17;98091.72;;;11.44;72.44
216;BME280;64590;48.81286795;9.14184224;2023-04-28T00:02:45;98092.84;;;11.57;72.39
216;BME280;64590;48.81286795;9.14184224;2023-04-28T00:05:12;98088.50;;;11.56;72.86
216;BME280;64590;48.81286795;9.14184224;2023-04-28T00:07:39;98089.66;;;11.59;72.08
216;BME280;64590;48.81286795;9.14184224;2023-04-28T00:10:07;98079.72;;;11.61;72.32
216;BME280;64590;48.81286795;9.14184224;2023-04-28T00:12:34;98070.13;;;11.73;72.91
216;BME280;64590;48.81286795;9.14184224;2023-04-28T00:15:00;98080.00;;;11.78;72.37
216;BME280;64590;48.81286795;9.14184224;2023-04-28T00:17:29;98068.59;;;11.65;71.36
216;BME280;64590;48.81286795;9.14184224;2023-04-28T00:19:57;98070.97;;;11.63;71.55
216;BME280;64590;48.81286795;9.14184224;2023-04-28T00:22:24;98071.31;;;11.72;70.90
216;BME280;64590;48.81286795;9.14184224;2023-04-28T00:24:50;98061.75;;;11.77;70.86
216;BME280;64590;48.81286795;9.14184224;2023-04-28T00:27:17;98055.66;;;12.00;70.02
216;BME280;64590;48.81286795;9.14184224;2023-04-28T00:29:44;98051.03;;;11.82;70.28
216;BME280;64590;48.81286795;9.14184224;2023-04-28T00:32:11;98056.19;;;11.84;69.41
216;BME280;64590;48.81286795;9.14184224;2023-04-28T00:34:38;98064.13;;;11.78;69.67
216;BME280;64590;48.81286795;9.14184224;2023-04-28T00:37:06;98056.19;;;12.32;67.00
216;BME280;64590;48.81286795;9.14184224;2023-04-28T00:39:33;98056.25;;;12.25;67.09
216;BME280;64590;48.81286795;9.14184224;2023-04-28T00:41:59;98054.97;;;12.33;66.03
216;BME280;64590;48.81286795;9.14184224;2023-04-28T00:44:26;98044.41;;;12.14;66.83
216;BME280;64590;48.81286795;9.14184224;2023-04-28T00:46:53;98042.16;;;11.98;67.46
216;BME280;64590;48.81286795;9.14184224;2023-04-28T00:49:19;98042.56;;;11.97;66.79
216;BME280;64590;48.81286795;9.14184224;2023-04-28T00:51:46;98040.56;;;12.01;66.80
216;BME280;64590;48.81286795;9.14184224;2023-04-28T00:54:14;98038.50;;;12.08;66.56
216;BME280;64590;48.81286795;9.14184224;2023-04-28T00:56:41;98042.81;;;12.16;66.26
216;BME280;64590;48.81286795;9.14184224;2023-04-28T00:59:09;98036.53;;;12.05;66.70
216;BME280;64590;48.81286795;9.14184224;2023-04-28T01:01:35;98039.63;;;12.18;66.32
216;BME280;64590;48.81286795;9.14184224;2023-04-28T01:04:02;98033.38;;;12.03;68.48
216;BME280;64590;48.81286795;9.14184224;2023-04-28T01:06:29;98038.19;;;11.99;69.53
216;BME280;64590;48.81286795;9.14184224;2023-04-28T01:08:59;98032.63;;;11.99;69.13
216;BME280;64590;48.81286795;9.14184224;2023-04-28T01:11:27;98028.66;;;11.97;70.18
216;BME280;64590;48.81286795;9.14184224;2023-04-28T01:14:06;98029.94;;;11.85;70.95
216;BME280;64590;48.81286795;9.14184224;2023-04-28T01:16:37;98022.44;;;11.82;70.54
216;BME280;64590;48.81286795;9.14184224;2023-04-28T01:19:06;98023.97;;;11.86;70.72
216;BME280;64590;48.81286795;9.14184224;2023-04-28T01:21:35;98012.00;;;11.89;69.94
216;BME280;64590;48.81286795;9.14184224;2023-04-28T01:24:17;98005.66;;;11.89;71.28
216;BME280;64590;48.81286795;9.14184224;2023-04-28T01:26:43;98009.69;;;11.84;71.72
216;BME280;64590;48.81286795;9.14184224;2023-04-28T01:29:10;98005.19;;;11.98;70.48
216;BME280;64590;48.81286795;9.14184224;2023-04-28T01:31:37;98004.47;;;11.90;70.78
216;BME280;64590;48.81286795;9.14184224;2023-04-28T01:34:03;98005.72;;;11.85;71.58
216;BME280;64590;48.81286795;9.14184224;2023-04-28T01:36:30;98003.94;;;12.06;70.37
216;BME280;64590;48.81286795;9.14184224;2023-04-28T01:38:57;97989.50;;;12.22;67.97
216;BME280;64590;48.81286795;9.14184224;2023-04-28T01:41:25;97991.13;;;12.15;67.78
216;BME280;64590;48.81286795;9.14184224;2023-04-28T01:43:52;97994.31;;;12.14;67.65
216;BME280;64590;48.81286795;9.14184224;2023-04-28T01:46:18;97999.09;;;12.17;69.12
216;BME280;64590;48.81286795;9.14184224;2023-04-28T01:48:45;97999.22;;;12.03;70.20
216;BME280;64590;48.81286795;9.14184224;2023-04-28T01:51:11;97990.44;;;12.04;71.11
216;BME280;64590;48.81286795;9.14184224;2023-04-28T01:53:38;97974.91;;;12.10;70.65
216;BME280;64590;48.81286795;9.14184224;2023-04-28T01:56:05;97982.81;;;12.12;70.50
216;BME280;64590;48.81286795;9.14184224;2023-04-28T01:58:34;97987.06;;;12.24;71.89
216;BME280;64590;48.81286795;9.14184224;2023-04-28T02:01:01;97987.72;;;11.97;74.35
216;BME280;64590;48.81286795;9.14184224;2023-04-28T02:03:28;97981.34;;;12.00;74.03
216;BME280;64590;48.81286795;9.14184224;2023-04-28T02:05:54;97974.22;;;11.96;75.95
216;BME280;64590;48.81286795;9.14184224;2023-04-28T02:08:21;97978.28;;;11.87;76.25
216;BME280;64590;48.81286795;9.14184224;2023-04-28T02:10:48;97971.81;;;11.98;75.78
216;BME280;64590;48.81286795;9.14184224;2023-04-28T02:13:15;97964.25;;;12.02;74.30
216;BME280;64590;48.81286795;9.14184224;2023-04-28T02:15:43;97967.50;;;11.89;74.41
216;BME280;64590;48.81286795;9.14184224;2023-04-28T02:18:10;97966.97;;;12.09;72.41
216;BME280;64590;48.81286795;9.14184224;2023-04-28T02:20:38;97971.50;;;11.92;73.21
216;BME280;64590;48.81286795;9.14184224;2023-04-28T02:23:07;97970.69;;;11.92;72.52
216;BME280;64590;48.81286795;9.14184224;2023-04-28T02:25:33;97966.97;;;12.05;72.54
216;BME280;64590;48.81286795;9.14184224;2023-04-28T02:28:00;97960.31;;;11.99;74.19
216;BME280;64590;48.81286795;9.14184224;2023-04-28T02:30:26;97961.22;;;12.27;71.66
216;BME280;64590;48.81286795;9.14184224;2023-04-28T02:32:56;97953.88;;;12.06;71.17
216;BME280;64590;48.81286795;9.14184224;2023-04-28T02:35:22;97949.13;;;12.03;73.24
216;BME280;64590;48.81286795;9.14184224;2023-04-28T02:37:49;97943.34;;;12.24;71.92
216;BME280;64590;48.81286795;9.14184224;2023-04-28T02:40:17;97953.06;;;12.09;71.57
216;BME280;64590;48.81286795;9.14184224;2023-04-28T02:42:44;97952.41;;;12.32;71.77
216;BME280;64590;48.81286795;9.14184224;2023-04-28T02:45:11;97958.03;;;12.28;70.98
216;BME280;64590;48.81286795;9.14184224;2023-04-28T02:47:38;97960.19;;;12.51;69.58
216;BME280;64590;48.81286795;9.14184224;2023-04-28T02:50:07;97957.25;;;12.24;70.32
216;BME280;64590;48.81286795;9.14184224;2023-04-28T02:52:34;97960.75;;;12.32;70.76
216;BME280;64590;48.81286795;9.14184224;2023-04-28T02:55:01;97951.78;;;12.17;71.75
216;BME280;64590;48.81286795;9.14184224;2023-04-28T02:57:29;97971.25;;;12.17;71.49
216;BME280;64590;48.81286795;9.14184224;2023-04-28T02:59:55;97968.19;;;12.42;68.55
216;BME280;64590;48.81286795;9.14184224;2023-04-28T03:02:24;97968.81;;;12.60;67.46
216;BME280;64590;48.81286795;9.14184224;2023-04-28T03:04:50;97972.91;;;12.49;67.56
216;BME280;64590;48.81286795;9.14184224;2023-04-28T03:07:18;97978.34;;;12.25;70.36
216;BME280;64590;48.81286795;9.14184224;2023-04-28T03:09:45;97976.00;;;12.20;74.64
216;BME280;64590;48.81286795;9.14184224;2023-04-28T03:12:12;97982.31;;;12.24;73.90
216;BME280;64590;48.81286795;9.14184224;2023-04-28T03:14:39;97978.81;;;12.16;78.40
216;BME280;64590;48.81286795;9.14184224;2023-04-28T03:17:06;97975.31;;;12.09;77.62
216;BME280;64590;48.81286795;9.14184224;2023-04-28T03:19:33;97970.69;;;11.92;77.53
216;BME280;64590;48.81286795;9.14184224;2023-04-28T03:21:59;97962.25;;;12.02;77.38
216;BME280;64590;48.81286795;9.14184224;2023-04-28T03:24:27;97953.84;;;12.09;77.49
216;BME280;64590;48.81286795;9.14184224;2023-04-28T03:26:53;97963.78;;;12.07;78.24
216;BME280;64590;48.81286795;9.14184224;2023-04-28T03:29:21;97953.38;;;12.14;78.21
216;BME280;64590;48.81286795;9.14184224;2023-04-28T03:31:48;97956.22;;;12.11;82.70
216;BME280;64590;48.81286795;9.14184224;2023-04-28T03:34:16;97939.94;;;12.06;79.70
216;BME280;64590;48.81286795;9.14184224;2023-04-28T03:36:42;97943.94;;;12.08;81.74
216;BME280;64590;48.81286795;9.14184224;2023-04-28T03:39:17;97959.13;;;11.97;81.18
216;BME280;64590;48.81286795;9.14184224;2023-04-28T03:41:45;97958.38;;;11.89;81.38
216;BME280;64590;48.81286795;9.14184224;2023-04-28T03:44:31;97955.72;;;11.75;82.07
216;BME280;64590;48.81286795;9.14184224;2023-04-28T03:46:58;97953.69;;;11.79;85.31
216;BME280;64590;48.81286795;9.14184224;2023-04-28T03:49:26;97950.50;;;11.80;85.06
216;BME280;64590;48.81286795;9.14184224;2023-04-28T03:51:52;97946.09;;;11.86;83.51
216;BME280;64590;48.81286795;9.14184224;2023-04-28T03:54:19;97941.81;;;11.75;83.29
216;BME280;64590;48.81286795;9.14184224;2023-04-28T03:56:47;97940.66;;;11.69;83.35
216;BME280;64590;48.81286795;9.14184224;2023-04-28T03:59:14;97926.75;;;11.69;83.28
216;BME280;64590;48.81286795;9.14184224;2023-04-28T04:01:41;97935.09;;;11.69;83.41
216;BME280;64590;48.81286795;9.14184224;2023-04-28T04:04:09;97936.72;;;11.66;84.51
216;BME280;64590;48.81286795;9.14184224;2023-04-28T04:06:36;97939.44;;;11.73;84.42
216;BME280;64590;48.81286795;9.14184224;2023-04-28T04:09:03;97925.81;;;11.89;84.64
216;BME280;64590;48.81286795;9.14184224;2023-04-28T04:11:31;97933.81;;;11.84;84.77
216;BME280;64590;48.81286795;9.14184224;2023-04-28T04:13:59;97934.50;;;11.95;85.44
216;BME280;64590;48.81286795;9.14184224;2023-04-28T04:16:26;97928.59;;;11.89;85.44
216;BME280;64590;48.81286795;9.14184224;2023-04-28T04:18:55;97929.41;;;11.86;85.26
216;BME280;64590;48.81286795;9.14184224;2023-04-28T04:21:27;97934.22;;;11.82;84.90
216;BME280;64590;48.81286795;9.14184224;2023-04-28T04:23:54;97923.81;;;11.90;83.61
216;BME280;64590;48.81286795;9.14184224;2023-04-28T04:26:22;97927.13;;;11.74;83.67
216;BME280;64590;48.81286795;9.14184224;2023-04-28T04:28:49;97925.78;;;11.93;82.50
216;BME280;64590;48.81286795;9.14184224;2023-04-28T04:31:17;97923.03;;;11.89;83.20
216;BME280;64590;48.81286795;9.14184224;2023-04-28T04:33:45;97928.47;;;12.04;82.69
216;BME280;64590;48.81286795;9.14184224;2023-04-28T04:36:12;97928.47;;;12.04;84.31
216;BME280;64590;48.81286795;9.14184224;2023-04-28T04:38:39;97931.41;;;11.86;85.70
216;BME280;64590;48.81286795;9.14184224;2023-04-28T04:41:14;97927.25;;;12.05;84.06
216;BME280;64590;48.81286795;9.14184224;2023-04-28T04:43:41;97924.47;;;12.05;84.79
216;BME280;64590;48.81286795;9.14184224;2023-04-28T04:46:08;97931.66;;;12.02;84.54
216;BME280;64590;48.81286795;9.14184224;2023-04-28T04:48:36;97930.50;;;11.96;83.86
216;BME280;64590;48.81286795;9.14184224;2023-04-28T04:51:03;97925.78;;;11.93;84.39
216;BME280;64590;48.81286795;9.14184224;2023-04-28T04:53:30;97919.50;;;11.85;84.88
216;BME280;64590;48.81286795;9.14184224;2023-04-28T04:55:57;97913.28;;;12.12;84.22
216;BME280;64590;48.81286795;9.14184224;2023-04-28T04:58:25;97914.91;;;12.06;85.48
216;BME280;64590;48.81286795;9.14184224;2023-04-28T05:01:22;97912.91;;;12.06;85.84
216;BME280;64590;48.81286795;9.14184224;2023-04-28T05:03:50;97916.16;;;12.39;82.41
216;BME280;64590;48.81286795;9.14184224;2023-04-28T05:06:17;97912.06;;;12.13;85.41
216;BME280;64590;48.81286795;9.14184224;2023-04-28T05:08:47;97914.28;;;11.91;87.67
216;BME280;64590;48.81286795;9.14184224;2023-04-28T05:11:14;97921.03;;;11.90;87.09
216;BME280;64590;48.81286795;9.14184224;2023-04-28T05:13:41;97928.16;;;11.95;87.62
216;BME280;64590;48.81286795;9.14184224;2023-04-28T05:16:07;97921.38;;;11.99;86.30
216;BME280;64590;48.81286795;9.14184224;2023-04-28T05:18:54;97916.59;;;11.96;88.15
216;BME280;64590;48.81286795;9.14184224;2023-04-28T05:21:21;97918.94;;;12.01;87.00
216;BME280;64590;48.81286795;9.14184224;2023-04-28T05:23:47;97929.84;;;11.85;87.80
216;BME280;64590;48.81286795;9.14184224;2023-04-28T05:26:14;97916.72;;;11.85;88.85
216;BME280;64590;48.81286795;9.14184224;2023-04-28T05:28:41;97916.28;;;11.91;87.29
216;BME280;64590;48.81286795;9.14184224;2023-04-28T05:31:08;97928.41;;;12.07;87.77
216;BME280;64590;48.81286795;9.14184224;2023-04-28T05:33:34;97924.44;;;12.08;87.00
216;BME280;64590;48.81286795;9.14184224;2023-04-28T05:36:03;97925.31;;;12.02;87.81
216;BME280;64590;48.81286795;9.14184224;2023-04-28T05:38:30;97929.25;;;12.04;87.88
216;BME280;64590;48.81286795;9.14184224;2023-04-28T05:40:58;97923.19;;;12.16;87.79
216;BME280;64590;48.81286795;9.14184224;2023-04-28T05:43:24;97914.41;;;12.18;87.20
216;BME280;64590;48.81286795;9.14184224;2023-04-28T05:45:52;97922.41;;;12.12;88.96
216;BME280;64590;48.81286795;9.14184224;2023-04-28T05:48:19;97923.19;;;12.16;88.34
216;BME280;64590;48.81286795;9.14184224;2023-04-28T05:50:45;97917.19;;;12.18;88.05
216;BME280;64590;48.81286795;9.14184224;2023-04-28T05:53:13;97919.91;;;12.25;88.31
216;BME280;64590;48.81286795;9.14184224;2023-04-28T05:55:40;97914.78;;;12.20;87.36
216;BME280;64590;48.81286795;9.14184224;2023-04-28T05:58:08;97912.72;;;12.28;88.69
216;BME280;64590;48.81286795;9.14184224;2023-04-28T06:00:34;97906.00;;;12.25;88.53
216;BME280;64590;48.81286795;9.14184224;2023-04-28T06:03:01;97900.44;;;12.22;87.71
216;BME280;64590;48.81286795;9.14184224;2023-04-28T06:05:27;97905.56;;;12.27;88.56
216;BME280;64590;48.81286795;9.14184224;2023-04-28T06:07:54;97905.16;;;12.28;88.70
216;BME280;64590;48.81286795;9.14184224;2023-04-28T06:10:24;97907.81;;;12.39;88.57
216;BME280;64590;48.81286795;9.14184224;2023-04-28T06:12:51;97906.31;;;12.31;87.58
216;BME280;64590;48.81286795;9.14184224;2023-04-28T06:15:18;97902.31;;;12.32;87.91
216;BME280;64590;48.81286795;9.14184224;2023-04-28T06:17:45;97901.88;;;12.37;88.10
216;BME280;64590;48.81286795;9.14184224;2023-04-28T06:20:11;97911.81;;;12.38;88.08
216;BME280;64590;48.81286795;9.14184224;2023-04-28T06:22:38;97908.16;;;12.44;88.26
216;BME280;64590;48.81286795;9.14184224;2023-04-28T06:25:06;97906.88;;;12.49;87.84
216;BME280;64590;48.81286795;9.14184224;2023-04-28T06:27:39;97902.72;;;12.34;88.71
216;BME280;64590;48.81286795;9.14184224;2023-04-28T06:30:07;97908.97;;;12.41;89.24
216;BME280;64590;48.81286795;9.14184224;2023-04-28T06:32:34;97907.38;;;12.44;89.25
216;BME280;64590;48.81286795;9.14184224;2023-04-28T06:35:01;97910.34;;;12.60;88.94
216;BME280;64590;48.81286795;9.14184224;2023-04-28T06:37:27;97904.03;;;12.56;88.59
216;BME280;64590;48.81286795;9.14184224;2023-04-28T06:39:54;97903.22;;;12.56;89.37
216;BME280;64590;48.81286795;9.14184224;2023-04-28T06:42:20;97899.06;;;12.71;88.52
216;BME280;64590;48.81286795;9.14184224;2023-04-28T06:44:57;97881.31;;;12.61;88.67
216;BME280;64590;48.81286795;9.14184224;2023-04-28T06:47:26;97897.16;;;12.64;89.11
216;BME280;64590;48.81286795;9.14184224;2023-04-28T06:49:52;97898.44;;;12.60;89.74
216;BME280;64590;48.81286795;9.14184224;2023-04-28T06:52:19;97900.91;;;12.51;90.59
216;BME280;64590;48.81286795;9.14184224;2023-04-28T06:54:46;97894.88;;;12.56;90.35
216;BME280;64590;48.81286795;9.14184224;2023-04-28T06:57:13;97885.88;;;12.44;90.41
216;BME280;64590;48.81286795;9.14184224;2023-04-28T06:59:40;97888.44;;;12.62;89.33
216;BME280;64590;48.81286795;9.14184224;2023-04-28T07:02:09;97882.22;;;12.51;89.47
216;BME280;64590;48.81286795;9.14184224;2023-04-28T07:04:36;97883.81;;;12.52;89.94
216;BME280;64590;48.81286795;9.14184224;2023-04-28T07:07:02;97884.97;;;12.55;90.28
216;BME280;64590;48.81286795;9.14184224;2023-04-28T07:09:32;97884.69;;;12.42;91.51
216;BME280;64590;48.81286795;9.14184224;2023-04-28T07:11:59;97865.47;;;12.55;90.32
216;BME280;64590;48.81286795;9.14184224;2023-04-28T07:14:25;97880.97;;;12.56;90.80
216;BME280;64590;48.81286795;9.14184224;2023-04-28T07:16:52;97874.66;;;12.52;91.60
216;BME280;64590;48.81286795;9.14184224;2023-04-28T07:19:20;97874.53;;;12.62;90.89
216;BME280;64590;48.81286795;9.14184224;2023-04-28T07:21:46;97875.34;;;12.59;90.55
216;BME280;64590;48.81286795;9.14184224;2023-04-28T07:24:13;97875.66;;;12.68;91.00
216;BME280;64590;48.81286795;9.14184224;2023-04-28T07:26:40;97872.78;;;12.72;90.41
216;BME280;64590;48.81286795;9.14184224;2023-04-28T07:29:06;97879.59;;;12.67;90.87
216;BME280;64590;48.81286795;9.14184224;2023-04-28T07:31:34;97871.06;;;12.82;90.07
216;BME280;64590;48.81286795;9.14184224;2023-04-28T07:34:01;97869.41;;;12.88;89.90
216;BME280;64590;48.81286795;9.14184224;2023-04-28T07:36:29;97868.28;;;12.82;90.02
216;BME280;64590;48.81286795;9.14184224;2023-04-28T07:38:56;97861.31;;;12.97;89.40
216;BME280;64590;48.81286795;9.14184224;2023-04-28T07:41:25;97870.09;;;12.95;90.17
216;BME280;64590;48.81286795;9.14184224;2023-04-28T07:43:52;97869.81;;;12.86;91.19
216;BME280;64590;48.81286795;9.14184224;2023-04-28T07:46:18;97872.56;;;12.90;91.85
216;BME280;64590;48.81286795;9.14184224;2023-04-28T07:48:45;97871.41;;;12.87;91.67
216;BME280;64590;48.81286795;9.14184224;2023-04-28T07:51:11;97873.16;;;13.05;91.35
216;BME280;64590;48.81286795;9.14184224;2023-04-28T07:53:39;97866.38;;;13.02;91.71
216;BME280;64590;48.81286795;9.14184224;2023-04-28T07:56:06;97865.22;;;13.03;91.69
216;BME280;64590;48.81286795;9.14184224;2023-04-28T07:58:32;97876.44;;;12.96;92.76
216;BME280;64590;48.81286795;9.14184224;2023-04-28T08:00:59;97882.38;;;12.98;92.63
216;BME280;64590;48.81286795;9.14184224;2023-04-28T08:03:26;97875.44;;;13.10;93.02
216;BME280;64590;48.81286795;9.14184224;2023-04-28T08:05:52;97891.69;;;12.88;93.63
216;BME280;64590;48.81286795;9.14184224;2023-04-28T08:08:19;97885.69;;;12.89;94.69
216;BME280;64590;48.81286795;9.14184224;2023-04-28T08:10:47;97892.56;;;12.81;95.00
216;BME280;64590;48.81286795;9.14184224;2023-04-28T08:13:15;97899.56;;;12.62;95.67
216;BME280;64590;48.81286795;9.14184224;2023-04-28T08:15:42;97898.66;;;13.03;93.44
216;BME280;64590;48.81286795;9.14184224;2023-04-28T08:18:08;97904.44;;;12.85;93.74
216;BME280;64590;48.81286795;9.14184224;2023-04-28T08:20:35;97922.97;;;12.68;94.32
216;BME280;64590;48.81286795;9.14184224;2023-04-28T08:23:01;97926.28;;;12.22;96.69
216;BME280;64590;48.81286795;9.14184224;2023-04-28T08:25:28;97927.34;;;12.35;95.75
216;BME280;64590;48.81286795;9.14184224;2023-04-28T08:27:57;97925.97;;;12.16;96.12
216;BME280;64590;48.81286795;9.14184224;2023-04-28T08:30:23;97927.53;;;12.18;96.00
216;BME280;64590;48.81286795;9.14184224;2023-04-28T08:32:50;97932.38;;;12.10;96.78
216;BME280;64590;48.81286795;9.14184224;2023-04-28T08:35:17;97922.94;;;12.00;97.04
216;BME280;64590;48.81286795;9.14184224;2023-04-28T08:37:43;97925.19;;;12.12;97.75
216;BME280;64590;48.81286795;9.14184224;2023-04-28T08:40:10;97935.84;;;12.21;98.47
216;BME280;64590;48.81286795;9.14184224;2023-04-28T08:42:37;97931.41;;;12.27;98.75
216;BME280;64590;48.81286795;9.14184224;2023-04-28T08:45:06;97928.94;;;12.33;99.24
216;BME280;64590;48.81286795;9.14184224;2023-04-28T08:47:34;97939.91;;;12.47;99.39
216;BME280;64590;48.81286795;9.14184224;2023-04-28T08:50:03;97941.41;;;12.55;98.77
216;BME280;64590;48.81286795;9.14184224;2023-04-28T08:52:30;97952.94;;;12.57;98.38
216;BME280;64590;48.81286795;9.14184224;2023-04-28T08:54:58;97941.41;;;12.55;98.89
216;BME280;64590;48.81286795;9.14184224;2023-04-28T08:57:26;97945.75;;;12.60;98.93
216;BME280;64590;48.81286795;9.14184224;2023-04-28T08:59:53;97948.41;;;12.70;98.91
216;BME280;64590;48.81286795;9.14184224;2023-04-28T09:02:21;97957.13;;;12.72;98.21
216;BME280;64590;48.81286795;9.14184224;2023-04-28T09:04:48;97954.28;;;12.76;99.05
216;BME280;64590;48.81286795;9.14184224;2023-04-28T09:07:14;97947.16;;;12.75;98.94
216;BME280;64590;48.81286795;9.14184224;2023-04-28T09:09:41;97957.91;;;12.73;98.37
216;BME280;64590;48.81286795;9.14184224;2023-04-28T09:12:09;97947.63;;;12.70;98.14
216;BME280;64590;48.81286795;9.14184224;2023-04-28T09:14:37;97954.78;;;12.71;99.66
216;BME280;64590;48.81286795;9.14184224;2023-04-28T09:17:08;97955.84;;;12.81;99.37
216;BME280;64590;48.81286795;9.14184224;2023-04-28T09:19:38;97958.47;;;12.91;98.51
216;BME280;64590;48.81286795;9.14184224;2023-04-28T09:22:07;97965.38;;;13.14;97.51
216;BME280;64590;48.81286795;9.14184224;2023-04-28T09:24:35;97941.22;;;13.04;97.99
216;BME280;64590;48.81286795;9.14184224;2023-04-28T09:27:05;97948.38;;;13.05;98.12
216;BME280;64590;48.81286795;9.14184224;2023-04-28T09:29:32;97951.75;;;13.19;98.23
216;BME280;64590;48.81286795;9.14184224;2023-04-28T09:32:12;97962.03;;;13.26;98.30
216;BME280;64590;48.81286795;9.14184224;2023-04-28T09:34:44;97956.72;;;13.35;97.82
216;BME280;64590;48.81286795;9.14184224;2023-04-28T09:37:15;97957.75;;;13.45;98.51
216;BME280;64590;48.81286795;9.14184224;2023-04-28T09:39:43;97953.63;;;13.56;97.51
216;BME280;64590;48.81286795;9.14184224;2023-04-28T09:42:10;97950.34;;;13.62;96.15
216;BME280;64590;48.81286795;9.14184224;2023-04-28T09:44:36;97951.34;;;13.75;96.77
216;BME280;64590;48.81286795;9.14184224;2023-04-28T09:47:18;97961.91;;;14.10;94.89
216;BME280;64590;48.81286795;9.14184224;2023-04-28T09:49:53;97958.91;;;13.98;94.93
216;BME280;64590;48.81286795;9.14184224;2023-04-28T09:52:21;97957.72;;;13.99;94.77
216;BME280;64590;48.81286795;9.14184224;2023-04-28T09:54:49;97947.09;;;13.90;96.09
216;BME280;64590;48.81286795;9.14184224;2023-04-28T09:57:16;97947.97;;;14.07;96.17
216;BME280;64590;48.81286795;9.14184224;2023-04-28T09:59:46;97950.84;;;14.27;95.85
216;BME280;64590;48.81286795;9.14184224;2023-04-28T10:02:14;97949.41;;;14.38;97.11
216;BME280;64590;48.81286795;9.14184224;2023-04-28T10:04:41;97941.59;;;14.53;96.80
216;BME280;64590;48.81286795;9.14184224;2023-04-28T10:07:11;97938.31;;;14.78;95.62
216;BME280;64590;48.81286795;9.14184224;2023-04-28T10:09:39;97955.19;;;14.51;95.47
216;BME280;64590;48.81286795;9.14184224;2023-04-28T10:12:08;97942.25;;;14.37;95.34
216;BME280;64590;48.81286795;9.14184224;2023-04-28T10:14:36;97946.53;;;14.42;95.56
216;BME280;64590;48.81286795;9.14184224;2023-04-28T10:17:03;97945.22;;;14.50;96.16
216;BME280;64590;48.81286795;9.14184224;2023-04-28T10:19:31;97939.16;;;14.55;96.29
216;BME280;64590;48.81286795;9.14184224;2023-04-28T10:22:08;97939.88;;;14.79;96.11
216;BME280;64590;48.81286795;9.14184224;2023-04-28T10:24:49;97937.34;;;14.85;95.53
216;BME280;64590;48.81286795;9.14184224;2023-04-28T10:27:19;97931.50;;;15.15;96.24
216;BME280;64590;48.81286795;9.14184224;2023-04-28T10:29:46;97933.47;;;15.35;94.81
216;BME280;64590;48.81286795;9.14184224;2023-04-28T10:32:20;97931.81;;;15.37;92.99
216;BME280;64590;48.81286795;9.14184224;2023-04-28T10:34:47;97938.47;;;15.43;93.16
216;BME280;64590;48.81286795;9.14184224;2023-04-28T10:37:14;97940.22;;;15.53;92.94
216;BME280;64590;48.81286795;9.14184224;2023-04-28T10:42:54;97938.91;;;15.58;93.31
216;BME280;64590;48.81286795;9.14184224;2023-04-28T10:45:57;97946.03;;;15.63;92.53
216;BME280;64590;48.81286795;9.14184224;2023-04-28T10:51:34;97950.31;;;15.83;92.66
216;BME280;64590;48.81286795;9.14184224;2023-04-28T10:54:14;97946.66;;;15.87;92.02
216;BME280;64590;48.81286795;9.14184224;2023-04-28T10:57:16;97947.25;;;15.78;89.77
216;BME280;64590;48.81286795;9.14184224;2023-04-28T10:59:45;97955.03;;;15.70;89.95
216;BME280;64590;48.81286795;9.14184224;2023-04-28T11:02:40;97949.88;;;15.69;88.40
216;BME280;64590;48.81286795;9.14184224;2023-04-28T11:05:11;97941.59;;;15.81;90.04
216;BME280;64590;48.81286795;9.14184224;2023-04-28T11:07:38;97940.16;;;15.90;88.16
216;BME280;64590;48.81286795;9.14184224;2023-04-28T11:10:06;97940.00;;;15.97;90.36
216;BME280;64590;48.81286795;9.14184224;2023-04-28T11:12:32;97939.19;;;16.13;88.68
216;BME280;64590;48.81286795;9.14184224;2023-04-28T11:15:10;97936.72;;;16.15;87.86
216;BME280;64590;48.81286795;9.14184224;2023-04-28T11:17:39;97938.66;;;16.18;87.47
216;BME280;64590;48.81286795;9.14184224;2023-04-28T11:20:11;97940.13;;;16.22;88.11
216;BME280;64590;48.81286795;9.14184224;2023-04-28T11:22:38;97946.44;;;16.26;87.98
216;BME280;64590;48.81286795;9.14184224;2023-04-28T11:25:06;97943.88;;;16.32;88.94
216;BME280;64590;48.81286795;9.14184224;2023-04-28T11:27:32;97943.34;;;16.37;87.71
216;BME280;64590;48.81286795;9.14184224;2023-04-28T11:29:59;97937.00;;;16.49;88.49
216;BME280;64590;48.81286795;9.14184224;2023-04-28T11:32:29;97939.72;;;16.53;87.19
216;BME280;64590;48.81286795;9.14184224;2023-04-28T11:34:56;97937.56;;;16.44;86.78
216;BME280;64590;48.81286795;9.14184224;2023-04-28T11:37:23;97940.84;;;16.55;88.20
216;BME280;64590;48.81286795;9.14184224;2023-04-28T11:39:50;97932.44;;;16.55;86.02
216;BME280;64590;48.81286795;9.14184224;2023-04-28T11:42:17;97928.44;;;16.40;85.11
216;BME280;64590;48.81286795;9.14184224;2023-04-28T11:44:48;97934.75;;;16.44;85.90
216;BME280;64590;48.81286795;9.14184224;2023-04-28T11:47:28;97932.09;;;16.53;86.08
216;BME280;64590;48.81286795;9.14184224;2023-04-28T11:49:57;97929.16;;;16.73;84.21
216;BME280;64590;48.81286795;9.14184224;2023-04-28T11:52:24;97929.06;;;16.77;83.44
216;BME280;64590;48.81286795;9.14184224;2023-04-28T11:54:53;97924.78;;;16.72;82.15